createdAt,value
2023-06-04T17:18:22.884Z,20.99
2023-06-04T17:20:54.448Z,21.11
2023-06-04T17:23:26.858Z,20.92
2023-06-04T17:25:58.343Z,20.50
2023-06-04T17:28:28.869Z,19.57
2023-06-04T17:31:00.202Z,20.44
2023-06-04T17:33:33.774Z,19.94
2023-06-04T17:36:05.644Z,19.83
2023-06-04T17:38:36.479Z,19.71
2023-06-04T17:41:07.323Z,20.23
2023-06-04T17:43:40.200Z,19.83
2023-06-04T17:46:10.956Z,19.52
2023-06-04T17:48:42.113Z,19.01
2023-06-04T17:51:14.411Z,18.68
2023-06-04T17:53:45.313Z,18.64
2023-06-04T17:56:15.821Z,18.71
2023-06-04T17:58:46.340Z,18.49
2023-06-04T18:01:16.983Z,19.03
2023-06-04T18:03:51.010Z,19.06
2023-06-04T18:06:21.949Z,18.54
2023-06-04T18:08:52.512Z,18.58
2023-06-04T18:11:23.301Z,18.81
2023-06-04T18:13:53.774Z,19.26
2023-06-04T18:16:24.696Z,19.56
2023-06-04T18:18:55.313Z,19.66
2023-06-04T18:21:25.872Z,18.82
2023-06-04T18:23:57.984Z,18.87
2023-06-04T18:26:28.700Z,19.88
2023-06-04T18:28:59.400Z,19.71
2023-06-04T18:31:30.199Z,20.20
2023-06-04T18:34:02.224Z,20.46
2023-06-04T18:36:33.349Z,20.50
2023-06-04T18:39:04.749Z,20.86
2023-06-04T18:41:35.740Z,20.92
2023-06-04T18:44:07.215Z,21.94
2023-06-04T18:46:38.266Z,22.27
2023-06-04T18:49:09.338Z,22.21
2023-06-04T18:51:40.887Z,22.61
2023-06-04T18:54:11.857Z,23.25
2023-06-04T18:56:43.105Z,23.91
2023-06-04T18:59:16.337Z,24.57
2023-06-04T19:01:47.788Z,25.44
2023-06-04T19:04:18.913Z,26.32
2023-06-04T19:06:49.579Z,27.15
2023-06-04T19:09:20.399Z,27.81
2023-06-04T19:11:51.741Z,28.45
2023-06-04T19:14:22.408Z,28.73
2023-06-04T19:16:52.917Z,28.89
2023-06-04T19:19:23.996Z,29.00
2023-06-04T19:21:54.509Z,29.87
2023-06-04T19:24:25.150Z,30.37
2023-06-04T19:26:56.007Z,30.83
2023-06-04T19:29:26.545Z,31.11
2023-06-04T19:31:57.542Z,31.41
2023-06-04T19:34:29.101Z,31.68
2023-06-04T19:37:00.118Z,32.23
2023-06-04T19:39:31.127Z,32.78
2023-06-04T19:42:01.623Z,33.14
2023-06-04T19:44:32.141Z,33.81
2023-06-04T19:47:04.081Z,34.33
2023-06-04T19:49:35.788Z,34.39
2023-06-04T19:52:06.703Z,34.44
2023-06-04T19:54:37.548Z,35.05
2023-06-04T19:57:11.050Z,35.92
2023-06-04T19:59:42.792Z,35.98
2023-06-04T20:02:13.468Z,35.91
2023-06-04T20:04:44.149Z,36.30
2023-06-04T20:07:14.876Z,36.55
2023-06-04T20:09:46.080Z,36.97
2023-06-04T20:12:17.399Z,37.56
2023-06-04T20:14:48.042Z,38.47
2023-06-04T20:17:18.888Z,40.30
2023-06-04T20:19:49.736Z,40.24
2023-06-04T20:22:20.297Z,40.18
2023-06-04T20:24:51.201Z,40.52
2023-06-04T20:27:21.676Z,40.69
2023-06-04T20:29:52.560Z,41.02
2023-06-04T20:32:24.551Z,41.79
2023-06-04T20:34:55.503Z,42.41
2023-06-04T20:37:25.987Z,42.61
2023-06-04T20:39:56.907Z,42.81
2023-06-04T20:42:27.501Z,43.42
2023-06-04T20:44:58.051Z,44.25
2023-06-04T20:47:29.281Z,44.95
2023-06-04T20:49:59.949Z,45.40
2023-06-04T20:52:30.535Z,46.06
2023-06-04T20:55:01.125Z,46.73
2023-06-04T20:57:31.737Z,47.17
2023-06-04T21:00:02.237Z,47.63
2023-06-04T21:02:33.774Z,47.56
2023-06-04T21:05:05.453Z,47.86
2023-06-04T21:07:36.201Z,47.88
2023-06-04T21:10:08.462Z,47.99
2023-06-04T21:12:39.168Z,48.10
2023-06-04T21:15:11.657Z,47.82
2023-06-04T21:17:42.408Z,47.24
2023-06-04T21:20:14.439Z,47.69
2023-06-04T21:22:45.134Z,47.81
2023-06-04T21:25:15.709Z,47.95
2023-06-04T21:27:50.239Z,48.05
2023-06-04T21:30:21.378Z,47.82
2023-06-04T21:32:51.978Z,47.87
2023-06-04T21:35:23.310Z,48.06
2023-06-04T21:37:54.071Z,48.33
2023-06-04T21:40:24.985Z,48.65
2023-06-04T21:42:55.695Z,48.81
2023-06-04T21:45:26.838Z,49.00
2023-06-04T21:47:58.571Z,49.32
2023-06-04T21:50:29.449Z,49.85
2023-06-04T21:53:00.358Z,49.83
2023-06-04T21:55:31.435Z,50.00
2023-06-04T21:58:02.097Z,50.52
2023-06-04T22:00:32.842Z,51.31
2023-06-04T22:03:04.094Z,51.57
2023-06-04T22:05:34.935Z,51.20
2023-06-04T22:08:06.465Z,51.60
2023-06-04T22:10:37.312Z,51.64
2023-06-04T22:13:08.328Z,51.81
2023-06-04T22:15:40.222Z,52.28
2023-06-04T22:18:11.392Z,52.45
2023-06-04T22:20:42.450Z,52.70
2023-06-04T22:23:13.066Z,53.20
2023-06-04T22:25:43.559Z,53.76
2023-06-04T22:28:14.565Z,54.07
2023-06-04T22:30:45.059Z,54.14
2023-06-04T22:33:16.070Z,54.38
2023-06-04T22:35:46.596Z,54.66
2023-06-04T22:38:17.262Z,54.86
2023-06-04T22:40:48.302Z,55.24
2023-06-04T22:43:19.349Z,55.64
2023-06-04T22:45:50.195Z,55.94
2023-06-04T22:48:20.738Z,56.21
2023-06-04T22:50:52.556Z,56.44
2023-06-04T22:53:24.137Z,56.52
2023-06-04T22:55:54.779Z,56.62
2023-06-04T22:58:25.751Z,56.65
2023-06-04T23:00:56.353Z,56.61
2023-06-04T23:03:28.892Z,56.53
2023-06-04T23:06:00.478Z,56.63
2023-06-04T23:08:31.437Z,56.43
2023-06-04T23:11:02.292Z,56.30
2023-06-04T23:13:32.889Z,56.36
2023-06-04T23:16:03.892Z,56.28
2023-06-04T23:18:34.543Z,56.47
2023-06-04T23:21:05.756Z,56.46
2023-06-04T23:23:36.907Z,56.53
2023-06-04T23:26:07.594Z,56.58
2023-06-04T23:28:38.648Z,56.63
2023-06-04T23:31:09.425Z,56.80
2023-06-04T23:33:40.084Z,56.86
2023-06-04T23:36:10.933Z,56.84
2023-06-04T23:38:41.862Z,56.94
2023-06-04T23:41:12.817Z,56.91
2023-06-04T23:43:43.598Z,57.04
2023-06-04T23:46:14.906Z,57.08
2023-06-04T23:48:45.966Z,57.06
2023-06-04T23:51:16.683Z,57.14
2023-06-04T23:53:47.918Z,57.22
2023-06-04T23:56:19.820Z,57.23
2023-06-04T23:58:50.832Z,57.26
